sensor_id;sensor_type;location;lat;lon;timestamp;P1;durP1;ratioP1;P2;durP2;ratioP2
57433;SDS011;43277;52.672;6.984;2022-10-16T00:01:22;8.80;;;2.33;;
57433;SDS011;43277;52.672;6.984;2022-10-16T00:03:50;13.45;;;2.85;;
57433;SDS011;43277;52.672;6.984;2022-10-16T00:06:17;8.13;;;1.98;;
57433;SDS011;43277;52.672;6.984;2022-10-16T00:08:44;9.40;;;2.25;;
57433;SDS011;43277;52.672;6.984;2022-10-16T00:11:18;9.07;;;2.17;;
57433;SDS011;43277;52.672;6.984;2022-10-16T00:13:46;8.90;;;2.47;;
57433;SDS011;43277;52.672;6.984;2022-10-16T00:16:13;11.52;;;2.83;;
57433;SDS011;43277;52.672;6.984;2022-10-16T00:18:39;8.18;;;2.00;;
57433;SDS011;43277;52.672;6.984;2022-10-16T00:21:05;9.70;;;2.35;;
57433;SDS011;43277;52.672;6.984;2022-10-16T00:23:33;11.15;;;2.28;;
57433;SDS011;43277;52.672;6.984;2022-10-16T00:26:01;8.70;;;2.20;;
57433;SDS011;43277;52.672;6.984;2022-10-16T00:28:28;10.13;;;2.20;;
57433;SDS011;43277;52.672;6.984;2022-10-16T00:30:54;7.10;;;2.00;;
57433;SDS011;43277;52.672;6.984;2022-10-16T00:33:19;9.18;;;1.90;;
57433;SDS011;43277;52.672;6.984;2022-10-16T00:35:45;8.02;;;2.20;;
57433;SDS011;43277;52.672;6.984;2022-10-16T00:38:11;10.02;;;1.90;;
57433;SDS011;43277;52.672;6.984;2022-10-16T00:40:37;7.00;;;1.70;;
57433;SDS011;43277;52.672;6.984;2022-10-16T00:43:02;11.13;;;2.13;;
57433;SDS011;43277;52.672;6.984;2022-10-16T00:45:34;9.90;;;2.42;;
57433;SDS011;43277;52.672;6.984;2022-10-16T00:47:59;8.68;;;2.17;;
57433;SDS011;43277;52.672;6.984;2022-10-16T00:50:29;7.85;;;1.67;;
57433;SDS011;43277;52.672;6.984;2022-10-16T00:52:56;8.27;;;1.83;;
57433;SDS011;43277;52.672;6.984;2022-10-16T00:55:23;14.50;;;2.15;;
57433;SDS011;43277;52.672;6.984;2022-10-16T00:57:50;9.18;;;1.92;;
57433;SDS011;43277;52.672;6.984;2022-10-16T01:00:20;7.55;;;2.17;;
57433;SDS011;43277;52.672;6.984;2022-10-16T01:02:54;7.82;;;2.13;;
57433;SDS011;43277;52.672;6.984;2022-10-16T01:05:22;9.68;;;2.33;;
57433;SDS011;43277;52.672;6.984;2022-10-16T01:13:10;8.73;;;2.30;;
57433;SDS011;43277;52.672;6.984;2022-10-16T01:20:48;8.05;;;2.13;;
57433;SDS011;43277;52.672;6.984;2022-10-16T01:23:27;7.78;;;2.03;;
57433;SDS011;43277;52.672;6.984;2022-10-16T01:28:56;7.43;;;2.17;;
57433;SDS011;43277;52.672;6.984;2022-10-16T01:31:29;8.23;;;2.13;;
57433;SDS011;43277;52.672;6.984;2022-10-16T01:34:08;7.53;;;1.95;;
57433;SDS011;43277;52.672;6.984;2022-10-16T01:36:41;10.20;;;2.13;;
57433;SDS011;43277;52.672;6.984;2022-10-16T01:39:12;7.28;;;2.30;;
57433;SDS011;43277;52.672;6.984;2022-10-16T01:41:49;5.68;;;1.80;;
57433;SDS011;43277;52.672;6.984;2022-10-16T01:44:37;7.82;;;2.10;;
57433;SDS011;43277;52.672;6.984;2022-10-16T01:47:04;9.00;;;1.98;;
57433;SDS011;43277;52.672;6.984;2022-10-16T01:49:34;8.07;;;2.13;;
57433;SDS011;43277;52.672;6.984;2022-10-16T01:52:04;8.07;;;2.67;;
57433;SDS011;43277;52.672;6.984;2022-10-16T01:54:33;9.45;;;2.30;;
57433;SDS011;43277;52.672;6.984;2022-10-16T01:57:01;6.00;;;1.90;;
57433;SDS011;43277;52.672;6.984;2022-10-16T01:59:31;7.43;;;1.85;;
57433;SDS011;43277;52.672;6.984;2022-10-16T02:01:59;9.10;;;2.03;;
57433;SDS011;43277;52.672;6.984;2022-10-16T02:04:32;6.30;;;1.80;;
57433;SDS011;43277;52.672;6.984;2022-10-16T02:07:01;8.38;;;1.98;;
57433;SDS011;43277;52.672;6.984;2022-10-16T02:09:27;6.95;;;1.80;;
57433;SDS011;43277;52.672;6.984;2022-10-16T02:11:54;5.57;;;1.70;;
57433;SDS011;43277;52.672;6.984;2022-10-16T02:14:24;8.98;;;2.20;;
57433;SDS011;43277;52.672;6.984;2022-10-16T02:16:51;8.75;;;1.88;;
57433;SDS011;43277;52.672;6.984;2022-10-16T02:19:17;6.63;;;1.80;;
57433;SDS011;43277;52.672;6.984;2022-10-16T02:21:56;5.97;;;2.15;;
57433;SDS011;43277;52.672;6.984;2022-10-16T02:24:30;5.72;;;1.90;;
57433;SDS011;43277;52.672;6.984;2022-10-16T02:29:45;7.03;;;1.90;;
57433;SDS011;43277;52.672;6.984;2022-10-16T02:32:19;5.65;;;2.00;;
57433;SDS011;43277;52.672;6.984;2022-10-16T02:34:48;7.13;;;2.10;;
57433;SDS011;43277;52.672;6.984;2022-10-16T02:37:16;8.07;;;2.10;;
57433;SDS011;43277;52.672;6.984;2022-10-16T02:39:42;8.63;;;2.20;;
57433;SDS011;43277;52.672;6.984;2022-10-16T02:42:12;9.20;;;2.00;;
57433;SDS011;43277;52.672;6.984;2022-10-16T02:44:38;8.63;;;2.00;;
57433;SDS011;43277;52.672;6.984;2022-10-16T02:47:04;8.45;;;2.30;;
57433;SDS011;43277;52.672;6.984;2022-10-16T02:49:29;7.70;;;2.22;;
57433;SDS011;43277;52.672;6.984;2022-10-16T02:51:55;7.75;;;2.25;;
57433;SDS011;43277;52.672;6.984;2022-10-16T02:54:20;6.72;;;2.15;;
57433;SDS011;43277;52.672;6.984;2022-10-16T02:56:46;7.15;;;2.20;;
57433;SDS011;43277;52.672;6.984;2022-10-16T02:59:12;7.38;;;1.92;;
57433;SDS011;43277;52.672;6.984;2022-10-16T03:01:37;6.88;;;2.22;;
57433;SDS011;43277;52.672;6.984;2022-10-16T03:04:03;8.35;;;2.00;;
57433;SDS011;43277;52.672;6.984;2022-10-16T03:06:28;5.93;;;2.00;;
57433;SDS011;43277;52.672;6.984;2022-10-16T03:08:54;6.85;;;2.20;;
57433;SDS011;43277;52.672;6.984;2022-10-16T03:11:20;6.05;;;1.92;;
57433;SDS011;43277;52.672;6.984;2022-10-16T03:13:45;7.35;;;2.15;;
57433;SDS011;43277;52.672;6.984;2022-10-16T03:16:11;6.95;;;2.13;;
57433;SDS011;43277;52.672;6.984;2022-10-16T03:18:36;9.30;;;2.47;;
57433;SDS011;43277;52.672;6.984;2022-10-16T03:21:02;7.57;;;2.42;;
57433;SDS011;43277;52.672;6.984;2022-10-16T03:23:28;7.78;;;2.58;;
57433;SDS011;43277;52.672;6.984;2022-10-16T03:25:53;6.35;;;2.20;;
57433;SDS011;43277;52.672;6.984;2022-10-16T03:28:19;6.13;;;2.25;;
57433;SDS011;43277;52.672;6.984;2022-10-16T03:30:45;8.30;;;2.28;;
57433;SDS011;43277;52.672;6.984;2022-10-16T03:33:11;6.75;;;2.08;;
57433;SDS011;43277;52.672;6.984;2022-10-16T03:35:36;7.43;;;2.30;;
57433;SDS011;43277;52.672;6.984;2022-10-16T03:38:02;6.85;;;2.10;;
57433;SDS011;43277;52.672;6.984;2022-10-16T03:40:28;7.05;;;2.42;;
57433;SDS011;43277;52.672;6.984;2022-10-16T03:42:54;6.90;;;2.53;;
57433;SDS011;43277;52.672;6.984;2022-10-16T03:45:22;5.65;;;2.25;;
57433;SDS011;43277;52.672;6.984;2022-10-16T03:47:48;6.47;;;2.35;;
57433;SDS011;43277;52.672;6.984;2022-10-16T03:50:14;7.65;;;3.10;;
57433;SDS011;43277;52.672;6.984;2022-10-16T03:52:39;6.90;;;2.60;;
57433;SDS011;43277;52.672;6.984;2022-10-16T03:55:05;6.22;;;2.70;;
57433;SDS011;43277;52.672;6.984;2022-10-16T03:57:31;7.35;;;2.78;;
57433;SDS011;43277;52.672;6.984;2022-10-16T03:59:57;7.38;;;2.70;;
57433;SDS011;43277;52.672;6.984;2022-10-16T04:02:22;5.60;;;2.72;;
57433;SDS011;43277;52.672;6.984;2022-10-16T04:04:48;7.00;;;2.70;;
57433;SDS011;43277;52.672;6.984;2022-10-16T04:07:14;9.88;;;2.97;;
57433;SDS011;43277;52.672;6.984;2022-10-16T04:09:40;6.35;;;2.50;;
57433;SDS011;43277;52.672;6.984;2022-10-16T04:12:05;8.10;;;3.08;;
57433;SDS011;43277;52.672;6.984;2022-10-16T04:14:31;7.18;;;2.70;;
57433;SDS011;43277;52.672;6.984;2022-10-16T04:16:56;8.00;;;3.05;;
57433;SDS011;43277;52.672;6.984;2022-10-16T04:19:22;8.13;;;3.10;;
57433;SDS011;43277;52.672;6.984;2022-10-16T04:21:47;7.30;;;2.78;;
57433;SDS011;43277;52.672;6.984;2022-10-16T04:24:13;8.27;;;3.10;;
57433;SDS011;43277;52.672;6.984;2022-10-16T04:26:39;7.30;;;2.90;;
57433;SDS011;43277;52.672;6.984;2022-10-16T04:29:04;6.10;;;2.85;;
57433;SDS011;43277;52.672;6.984;2022-10-16T04:31:31;8.18;;;2.90;;
57433;SDS011;43277;52.672;6.984;2022-10-16T04:33:56;6.40;;;3.30;;
57433;SDS011;43277;52.672;6.984;2022-10-16T04:36:22;8.07;;;3.00;;
57433;SDS011;43277;52.672;6.984;2022-10-16T04:38:47;6.15;;;2.88;;
57433;SDS011;43277;52.672;6.984;2022-10-16T04:41:13;7.90;;;3.38;;
57433;SDS011;43277;52.672;6.984;2022-10-16T04:43:39;8.65;;;2.70;;
57433;SDS011;43277;52.672;6.984;2022-10-16T04:46:04;6.72;;;2.70;;
57433;SDS011;43277;52.672;6.984;2022-10-16T04:48:30;6.40;;;2.83;;
57433;SDS011;43277;52.672;6.984;2022-10-16T04:50:56;5.75;;;2.65;;
57433;SDS011;43277;52.672;6.984;2022-10-16T04:53:22;8.90;;;2.90;;
57433;SDS011;43277;52.672;6.984;2022-10-16T04:55:48;6.50;;;2.80;;
57433;SDS011;43277;52.672;6.984;2022-10-16T04:58:13;8.25;;;2.85;;
57433;SDS011;43277;52.672;6.984;2022-10-16T05:00:39;6.40;;;3.03;;
57433;SDS011;43277;52.672;6.984;2022-10-16T05:03:05;8.40;;;2.85;;
57433;SDS011;43277;52.672;6.984;2022-10-16T05:05:33;7.32;;;2.78;;
57433;SDS011;43277;52.672;6.984;2022-10-16T05:08:00;8.50;;;3.00;;
57433;SDS011;43277;52.672;6.984;2022-10-16T05:10:25;9.38;;;3.40;;
57433;SDS011;43277;52.672;6.984;2022-10-16T05:12:51;6.82;;;3.15;;
57433;SDS011;43277;52.672;6.984;2022-10-16T05:15:17;7.28;;;2.80;;
57433;SDS011;43277;52.672;6.984;2022-10-16T05:17:43;5.88;;;2.95;;
57433;SDS011;43277;52.672;6.984;2022-10-16T05:20:09;8.75;;;3.13;;
57433;SDS011;43277;52.672;6.984;2022-10-16T05:22:35;8.10;;;3.15;;
57433;SDS011;43277;52.672;6.984;2022-10-16T05:25:01;7.70;;;2.90;;
57433;SDS011;43277;52.672;6.984;2022-10-16T05:27:26;9.77;;;3.05;;
57433;SDS011;43277;52.672;6.984;2022-10-16T05:29:52;10.05;;;2.80;;
57433;SDS011;43277;52.672;6.984;2022-10-16T05:32:17;8.38;;;2.90;;
57433;SDS011;43277;52.672;6.984;2022-10-16T05:34:44;7.85;;;2.78;;
57433;SDS011;43277;52.672;6.984;2022-10-16T05:37:10;8.32;;;3.00;;
57433;SDS011;43277;52.672;6.984;2022-10-16T05:39:37;7.45;;;3.30;;
57433;SDS011;43277;52.672;6.984;2022-10-16T05:42:03;6.72;;;2.88;;
57433;SDS011;43277;52.672;6.984;2022-10-16T05:44:29;7.25;;;2.85;;
57433;SDS011;43277;52.672;6.984;2022-10-16T05:46:54;8.32;;;2.70;;
57433;SDS011;43277;52.672;6.984;2022-10-16T05:49:20;5.70;;;2.70;;
57433;SDS011;43277;52.672;6.984;2022-10-16T05:51:45;6.45;;;2.67;;
57433;SDS011;43277;52.672;6.984;2022-10-16T05:54:11;7.78;;;2.90;;
57433;SDS011;43277;52.672;6.984;2022-10-16T05:56:37;8.73;;;2.92;;
57433;SDS011;43277;52.672;6.984;2022-10-16T05:59:03;7.05;;;2.85;;
57433;SDS011;43277;52.672;6.984;2022-10-16T06:01:29;7.38;;;2.80;;
57433;SDS011;43277;52.672;6.984;2022-10-16T06:03:56;6.85;;;2.60;;
57433;SDS011;43277;52.672;6.984;2022-10-16T06:06:23;6.05;;;2.60;;
57433;SDS011;43277;52.672;6.984;2022-10-16T06:08:51;6.15;;;2.70;;
57433;SDS011;43277;52.672;6.984;2022-10-16T06:11:21;6.70;;;2.40;;
57433;SDS011;43277;52.672;6.984;2022-10-16T06:13:52;6.78;;;2.28;;
57433;SDS011;43277;52.672;6.984;2022-10-16T06:16:19;7.30;;;2.80;;
57433;SDS011;43277;52.672;6.984;2022-10-16T06:18:45;8.25;;;2.63;;
57433;SDS011;43277;52.672;6.984;2022-10-16T06:21:12;6.93;;;2.72;;
57433;SDS011;43277;52.672;6.984;2022-10-16T06:23:41;8.65;;;2.40;;
57433;SDS011;43277;52.672;6.984;2022-10-16T06:26:10;6.60;;;2.40;;
57433;SDS011;43277;52.672;6.984;2022-10-16T06:28:37;9.80;;;3.42;;
57433;SDS011;43277;52.672;6.984;2022-10-16T06:31:04;6.22;;;2.50;;
57433;SDS011;43277;52.672;6.984;2022-10-16T06:33:30;6.78;;;2.63;;
57433;SDS011;43277;52.672;6.984;2022-10-16T06:36:03;9.10;;;2.70;;
57433;SDS011;43277;52.672;6.984;2022-10-16T06:38:30;6.55;;;2.35;;
57433;SDS011;43277;52.672;6.984;2022-10-16T06:40:55;7.25;;;2.30;;
57433;SDS011;43277;52.672;6.984;2022-10-16T06:43:21;9.63;;;2.47;;
57433;SDS011;43277;52.672;6.984;2022-10-16T06:45:54;7.15;;;2.42;;
57433;SDS011;43277;52.672;6.984;2022-10-16T06:48:20;6.25;;;2.55;;
57433;SDS011;43277;52.672;6.984;2022-10-16T06:53:26;6.30;;;2.42;;
57433;SDS011;43277;52.672;6.984;2022-10-16T06:55:53;8.70;;;2.65;;
57433;SDS011;43277;52.672;6.984;2022-10-16T06:58:19;6.93;;;2.50;;
57433;SDS011;43277;52.672;6.984;2022-10-16T07:00:45;8.02;;;2.42;;
57433;SDS011;43277;52.672;6.984;2022-10-16T07:03:11;6.82;;;2.42;;
57433;SDS011;43277;52.672;6.984;2022-10-16T07:05:41;7.68;;;2.67;;
57433;SDS011;43277;52.672;6.984;2022-10-16T07:08:07;6.60;;;2.53;;
57433;SDS011;43277;52.672;6.984;2022-10-16T07:10:33;7.22;;;2.28;;
57433;SDS011;43277;52.672;6.984;2022-10-16T07:12:59;6.97;;;2.45;;
57433;SDS011;43277;52.672;6.984;2022-10-16T07:15:25;7.75;;;2.35;;
57433;SDS011;43277;52.672;6.984;2022-10-16T07:17:51;7.85;;;2.45;;
57433;SDS011;43277;52.672;6.984;2022-10-16T07:20:16;7.07;;;2.50;;
57433;SDS011;43277;52.672;6.984;2022-10-16T07:22:42;8.77;;;2.42;;
57433;SDS011;43277;52.672;6.984;2022-10-16T07:25:08;6.47;;;2.30;;
57433;SDS011;43277;52.672;6.984;2022-10-16T07:27:34;7.32;;;2.50;;
57433;SDS011;43277;52.672;6.984;2022-10-16T07:29:59;7.45;;;2.10;;
57433;SDS011;43277;52.672;6.984;2022-10-16T07:32:25;9.02;;;2.25;;
57433;SDS011;43277;52.672;6.984;2022-10-16T07:34:51;7.72;;;2.25;;
57433;SDS011;43277;52.672;6.984;2022-10-16T07:37:17;7.65;;;2.92;;
57433;SDS011;43277;52.672;6.984;2022-10-16T07:39:43;6.85;;;2.45;;
57433;SDS011;43277;52.672;6.984;2022-10-16T07:42:08;7.35;;;2.55;;
57433;SDS011;43277;52.672;6.984;2022-10-16T07:44:34;5.50;;;2.17;;
57433;SDS011;43277;52.672;6.984;2022-10-16T07:47:00;7.45;;;2.20;;
57433;SDS011;43277;52.672;6.984;2022-10-16T07:49:25;9.68;;;2.80;;
57433;SDS011;43277;52.672;6.984;2022-10-16T07:51:51;7.88;;;2.58;;
57433;SDS011;43277;52.672;6.984;2022-10-16T07:54:16;7.85;;;2.42;;
57433;SDS011;43277;52.672;6.984;2022-10-16T07:56:42;6.68;;;2.35;;
57433;SDS011;43277;52.672;6.984;2022-10-16T07:59:08;7.25;;;2.35;;
57433;SDS011;43277;52.672;6.984;2022-10-16T08:01:33;6.63;;;2.30;;
57433;SDS011;43277;52.672;6.984;2022-10-16T08:03:59;8.30;;;2.10;;
57433;SDS011;43277;52.672;6.984;2022-10-16T08:06:24;9.30;;;2.22;;
57433;SDS011;43277;52.672;6.984;2022-10-16T08:08:50;9.20;;;2.42;;
57433;SDS011;43277;52.672;6.984;2022-10-16T08:11:16;8.38;;;2.10;;
57433;SDS011;43277;52.672;6.984;2022-10-16T08:13:42;8.70;;;2.20;;
57433;SDS011;43277;52.672;6.984;2022-10-16T08:16:07;6.57;;;2.28;;
57433;SDS011;43277;52.672;6.984;2022-10-16T08:18:35;7.63;;;2.67;;
57433;SDS011;43277;52.672;6.984;2022-10-16T08:21:01;7.88;;;2.22;;
57433;SDS011;43277;52.672;6.984;2022-10-16T08:23:27;9.73;;;2.72;;
57433;SDS011;43277;52.672;6.984;2022-10-16T08:25:53;7.57;;;2.60;;
57433;SDS011;43277;52.672;6.984;2022-10-16T08:28:20;10.35;;;2.30;;
57433;SDS011;43277;52.672;6.984;2022-10-16T08:30:46;8.05;;;2.17;;
57433;SDS011;43277;52.672;6.984;2022-10-16T08:33:11;6.60;;;2.00;;
57433;SDS011;43277;52.672;6.984;2022-10-16T08:35:37;7.40;;;2.17;;
57433;SDS011;43277;52.672;6.984;2022-10-16T08:38:06;7.43;;;2.00;;
57433;SDS011;43277;52.672;6.984;2022-10-16T08:40:32;8.85;;;2.50;;
57433;SDS011;43277;52.672;6.984;2022-10-16T08:48:42;7.97;;;2.25;;
57433;SDS011;43277;52.672;6.984;2022-10-16T08:51:28;6.80;;;2.30;;
57433;SDS011;43277;52.672;6.984;2022-10-16T08:54:08;9.05;;;2.25;;
57433;SDS011;43277;52.672;6.984;2022-10-16T08:57:00;7.50;;;2.10;;
57433;SDS011;43277;52.672;6.984;2022-10-16T08:59:34;8.73;;;2.20;;
57433;SDS011;43277;52.672;6.984;2022-10-16T09:01:59;9.15;;;1.98;;
57433;SDS011;43277;52.672;6.984;2022-10-16T09:07:04;8.48;;;1.88;;
57433;SDS011;43277;52.672;6.984;2022-10-16T09:17:58;11.63;;;2.00;;
57433;SDS011;43277;52.672;6.984;2022-10-16T09:20:43;5.38;;;1.65;;
57433;SDS011;43277;52.672;6.984;2022-10-16T09:25:43;9.38;;;2.00;;
57433;SDS011;43277;52.672;6.984;2022-10-16T09:28:13;8.02;;;1.58;;
57433;SDS011;43277;52.672;6.984;2022-10-16T09:30:39;7.93;;;1.77;;
57433;SDS011;43277;52.672;6.984;2022-10-16T09:33:05;6.47;;;1.60;;
57433;SDS011;43277;52.672;6.984;2022-10-16T09:38:06;7.72;;;1.63;;
57433;SDS011;43277;52.672;6.984;2022-10-16T09:40:37;7.97;;;1.75;;
57433;SDS011;43277;52.672;6.984;2022-10-16T09:43:23;7.80;;;1.83;;
57433;SDS011;43277;52.672;6.984;2022-10-16T09:46:03;9.45;;;1.70;;
57433;SDS011;43277;52.672;6.984;2022-10-16T09:48:35;8.40;;;1.92;;
57433;SDS011;43277;52.672;6.984;2022-10-16T09:51:04;8.45;;;1.80;;
57433;SDS011;43277;52.672;6.984;2022-10-16T09:53:41;8.68;;;1.80;;
57433;SDS011;43277;52.672;6.984;2022-10-16T09:56:09;10.32;;;2.20;;
57433;SDS011;43277;52.672;6.984;2022-10-16T09:58:41;9.33;;;2.00;;
57433;SDS011;43277;52.672;6.984;2022-10-16T10:01:13;7.95;;;1.83;;
57433;SDS011;43277;52.672;6.984;2022-10-16T10:03:40;9.98;;;1.65;;
57433;SDS011;43277;52.672;6.984;2022-10-16T10:06:18;8.52;;;1.85;;
57433;SDS011;43277;52.672;6.984;2022-10-16T10:11:37;11.38;;;2.30;;
57433;SDS011;43277;52.672;6.984;2022-10-16T10:25:36;9.70;;;2.22;;
57433;SDS011;43277;52.672;6.984;2022-10-16T10:28:15;11.00;;;1.77;;
57433;SDS011;43277;52.672;6.984;2022-10-16T10:33:28;9.55;;;1.75;;
57433;SDS011;43277;52.672;6.984;2022-10-16T10:36:01;10.52;;;1.98;;
57433;SDS011;43277;52.672;6.984;2022-10-16T10:41:44;13.80;;;2.58;;
57433;SDS011;43277;52.672;6.984;2022-10-16T10:50:10;13.18;;;2.42;;
57433;SDS011;43277;52.672;6.984;2022-10-16T10:52:56;9.65;;;1.95;;
57433;SDS011;43277;52.672;6.984;2022-10-16T11:06:52;9.13;;;2.10;;
57433;SDS011;43277;52.672;6.984;2022-10-16T11:09:24;11.95;;;2.42;;
57433;SDS011;43277;52.672;6.984;2022-10-16T11:11:57;12.77;;;2.42;;
57433;SDS011;43277;52.672;6.984;2022-10-16T11:14:34;10.27;;;2.10;;
57433;SDS011;43277;52.672;6.984;2022-10-16T11:17:21;8.75;;;1.73;;
57433;SDS011;43277;52.672;6.984;2022-10-16T11:22:21;12.93;;;2.30;;
57433;SDS011;43277;52.672;6.984;2022-10-16T11:24:53;11.27;;;2.20;;
57433;SDS011;43277;52.672;6.984;2022-10-16T11:27:41;11.48;;;2.92;;
57433;SDS011;43277;52.672;6.984;2022-10-16T11:30:28;8.88;;;1.90;;
57433;SDS011;43277;52.672;6.984;2022-10-16T11:36:08;12.45;;;2.45;;
57433;SDS011;43277;52.672;6.984;2022-10-16T11:41:49;13.52;;;2.58;;
57433;SDS011;43277;52.672;6.984;2022-10-16T11:44:34;10.65;;;2.03;;
57433;SDS011;43277;52.672;6.984;2022-10-16T11:47:24;11.48;;;2.38;;
57433;SDS011;43277;52.672;6.984;2022-10-16T11:52:52;12.77;;;2.80;;
57433;SDS011;43277;52.672;6.984;2022-10-16T11:55:33;14.15;;;2.50;;
57433;SDS011;43277;52.672;6.984;2022-10-16T11:58:01;11.07;;;2.25;;
57433;SDS011;43277;52.672;6.984;2022-10-16T12:00:38;9.65;;;2.45;;
57433;SDS011;43277;52.672;6.984;2022-10-16T12:03:21;10.05;;;2.25;;
57433;SDS011;43277;52.672;6.984;2022-10-16T12:08:38;11.27;;;2.55;;
57433;SDS011;43277;52.672;6.984;2022-10-16T12:11:24;11.30;;;2.17;;
57433;SDS011;43277;52.672;6.984;2022-10-16T12:14:07;9.85;;;2.10;;
57433;SDS011;43277;52.672;6.984;2022-10-16T12:16:37;14.02;;;2.65;;
57433;SDS011;43277;52.672;6.984;2022-10-16T12:19:32;9.70;;;2.33;;
57433;SDS011;43277;52.672;6.984;2022-10-16T12:22:01;11.00;;;2.30;;
57433;SDS011;43277;52.672;6.984;2022-10-16T12:24:35;10.20;;;2.13;;
57433;SDS011;43277;52.672;6.984;2022-10-16T12:27:04;10.73;;;2.15;;
57433;SDS011;43277;52.672;6.984;2022-10-16T12:29:44;11.57;;;2.65;;
57433;SDS011;43277;52.672;6.984;2022-10-16T12:32:31;9.27;;;2.10;;
57433;SDS011;43277;52.672;6.984;2022-10-16T12:34:59;13.05;;;2.63;;
57433;SDS011;43277;52.672;6.984;2022-10-16T12:37:28;10.65;;;2.20;;
57433;SDS011;43277;52.672;6.984;2022-10-16T12:39:56;10.23;;;2.20;;
57433;SDS011;43277;52.672;6.984;2022-10-16T12:44:52;10.90;;;2.72;;
57433;SDS011;43277;52.672;6.984;2022-10-16T12:47:19;9.95;;;2.60;;
57433;SDS011;43277;52.672;6.984;2022-10-16T12:49:53;14.57;;;2.30;;
57433;SDS011;43277;52.672;6.984;2022-10-16T12:55:02;14.30;;;2.70;;
57433;SDS011;43277;52.672;6.984;2022-10-16T13:00:40;10.63;;;2.33;;
57433;SDS011;43277;52.672;6.984;2022-10-16T13:24:46;9.27;;;2.15;;
57433;SDS011;43277;52.672;6.984;2022-10-16T13:27:29;12.48;;;2.05;;
57433;SDS011;43277;52.672;6.984;2022-10-16T13:32:43;9.85;;;2.17;;
57433;SDS011;43277;52.672;6.984;2022-10-16T13:35:21;11.60;;;2.17;;
57433;SDS011;43277;52.672;6.984;2022-10-16T13:37:51;11.98;;;2.22;;
57433;SDS011;43277;52.672;6.984;2022-10-16T13:40:27;11.27;;;2.38;;
57433;SDS011;43277;52.672;6.984;2022-10-16T13:42:53;10.95;;;1.80;;
57433;SDS011;43277;52.672;6.984;2022-10-16T13:45:23;9.70;;;2.00;;
57433;SDS011;43277;52.672;6.984;2022-10-16T13:48:02;10.45;;;2.30;;
57433;SDS011;43277;52.672;6.984;2022-10-16T13:50:29;10.90;;;2.40;;
57433;SDS011;43277;52.672;6.984;2022-10-16T13:53:12;10.45;;;2.42;;
57433;SDS011;43277;52.672;6.984;2022-10-16T13:55:39;13.20;;;2.70;;
57433;SDS011;43277;52.672;6.984;2022-10-16T13:58:06;10.02;;;2.17;;
57433;SDS011;43277;52.672;6.984;2022-10-16T14:00:52;9.55;;;2.08;;
57433;SDS011;43277;52.672;6.984;2022-10-16T14:03:20;8.35;;;2.00;;
57433;SDS011;43277;52.672;6.984;2022-10-16T14:05:50;9.63;;;1.95;;
57433;SDS011;43277;52.672;6.984;2022-10-16T14:08:27;9.50;;;1.98;;
57433;SDS011;43277;52.672;6.984;2022-10-16T14:10:56;10.40;;;2.28;;
57433;SDS011;43277;52.672;6.984;2022-10-16T14:13:44;7.35;;;1.80;;
57433;SDS011;43277;52.672;6.984;2022-10-16T14:16:11;9.13;;;2.00;;
57433;SDS011;43277;52.672;6.984;2022-10-16T14:18:46;9.60;;;1.95;;
57433;SDS011;43277;52.672;6.984;2022-10-16T14:21:16;9.13;;;1.90;;
57433;SDS011;43277;52.672;6.984;2022-10-16T14:23:43;7.88;;;2.00;;
57433;SDS011;43277;52.672;6.984;2022-10-16T14:28:35;7.78;;;1.80;;
57433;SDS011;43277;52.672;6.984;2022-10-16T14:31:02;8.15;;;2.17;;
57433;SDS011;43277;52.672;6.984;2022-10-16T14:33:50;10.02;;;1.88;;
57433;SDS011;43277;52.672;6.984;2022-10-16T14:36:16;9.93;;;2.22;;
57433;SDS011;43277;52.672;6.984;2022-10-16T14:41:25;9.80;;;2.17;;
57433;SDS011;43277;52.672;6.984;2022-10-16T14:43:52;11.55;;;2.05;;
57433;SDS011;43277;52.672;6.984;2022-10-16T14:46:35;8.50;;;1.98;;
57433;SDS011;43277;52.672;6.984;2022-10-16T14:51:35;9.85;;;2.40;;
57433;SDS011;43277;52.672;6.984;2022-10-16T14:54:02;11.45;;;2.17;;
57433;SDS011;43277;52.672;6.984;2022-10-16T14:56:33;8.73;;;2.13;;
57433;SDS011;43277;52.672;6.984;2022-10-16T14:59:10;9.95;;;2.22;;
57433;SDS011;43277;52.672;6.984;2022-10-16T15:01:42;9.48;;;1.80;;
57433;SDS011;43277;52.672;6.984;2022-10-16T15:04:09;9.43;;;1.98;;
57433;SDS011;43277;52.672;6.984;2022-10-16T15:06:36;10.23;;;1.90;;
57433;SDS011;43277;52.672;6.984;2022-10-16T15:09:02;10.07;;;2.08;;
57433;SDS011;43277;52.672;6.984;2022-10-16T15:11:28;10.52;;;2.17;;
57433;SDS011;43277;52.672;6.984;2022-10-16T15:13:56;14.73;;;2.28;;
57433;SDS011;43277;52.672;6.984;2022-10-16T15:16:21;11.70;;;2.08;;
57433;SDS011;43277;52.672;6.984;2022-10-16T15:18:47;10.52;;;2.20;;
57433;SDS011;43277;52.672;6.984;2022-10-16T15:21:31;6.68;;;1.50;;
57433;SDS011;43277;52.672;6.984;2022-10-16T15:23:58;11.43;;;2.17;;
57433;SDS011;43277;52.672;6.984;2022-10-16T15:26:25;12.50;;;2.40;;
57433;SDS011;43277;52.672;6.984;2022-10-16T15:28:52;11.73;;;2.35;;
57433;SDS011;43277;52.672;6.984;2022-10-16T15:31:18;11.25;;;2.30;;
57433;SDS011;43277;52.672;6.984;2022-10-16T15:33:44;14.85;;;2.60;;
57433;SDS011;43277;52.672;6.984;2022-10-16T15:36:16;11.27;;;2.40;;
57433;SDS011;43277;52.672;6.984;2022-10-16T15:38:42;8.20;;;2.08;;
57433;SDS011;43277;52.672;6.984;2022-10-16T15:41:07;10.90;;;2.22;;
57433;SDS011;43277;52.672;6.984;2022-10-16T15:43:33;10.75;;;2.20;;
57433;SDS011;43277;52.672;6.984;2022-10-16T15:46:00;11.52;;;2.15;;
57433;SDS011;43277;52.672;6.984;2022-10-16T15:48:28;12.75;;;2.38;;
57433;SDS011;43277;52.672;6.984;2022-10-16T15:50:54;13.82;;;2.47;;
57433;SDS011;43277;52.672;6.984;2022-10-16T15:53:20;10.52;;;2.33;;
57433;SDS011;43277;52.672;6.984;2022-10-16T15:55:46;14.52;;;2.88;;
57433;SDS011;43277;52.672;6.984;2022-10-16T15:58:12;11.05;;;2.38;;
57433;SDS011;43277;52.672;6.984;2022-10-16T16:00:37;11.13;;;2.35;;
57433;SDS011;43277;52.672;6.984;2022-10-16T16:03:03;11.18;;;2.20;;
57433;SDS011;43277;52.672;6.984;2022-10-16T16:05:29;14.65;;;2.80;;
57433;SDS011;43277;52.672;6.984;2022-10-16T16:07:54;13.55;;;2.70;;
57433;SDS011;43277;52.672;6.984;2022-10-16T16:10:21;12.27;;;2.90;;
57433;SDS011;43277;52.672;6.984;2022-10-16T16:12:47;10.73;;;2.40;;
57433;SDS011;43277;52.672;6.984;2022-10-16T16:15:20;13.43;;;2.47;;
57433;SDS011;43277;52.672;6.984;2022-10-16T16:17:46;12.73;;;2.53;;
57433;SDS011;43277;52.672;6.984;2022-10-16T16:20:13;11.90;;;2.30;;
57433;SDS011;43277;52.672;6.984;2022-10-16T16:22:39;12.98;;;2.42;;
57433;SDS011;43277;52.672;6.984;2022-10-16T16:25:05;13.15;;;2.65;;
57433;SDS011;43277;52.672;6.984;2022-10-16T16:27:31;14.15;;;2.35;;
57433;SDS011;43277;52.672;6.984;2022-10-16T16:29:58;10.85;;;2.72;;
57433;SDS011;43277;52.672;6.984;2022-10-16T16:32:24;9.45;;;2.08;;
57433;SDS011;43277;52.672;6.984;2022-10-16T16:34:50;11.45;;;2.45;;
57433;SDS011;43277;52.672;6.984;2022-10-16T16:37:16;12.07;;;2.20;;
57433;SDS011;43277;52.672;6.984;2022-10-16T16:39:41;15.43;;;2.85;;
57433;SDS011;43277;52.672;6.984;2022-10-16T16:42:07;13.73;;;2.47;;
57433;SDS011;43277;52.672;6.984;2022-10-16T16:44:33;10.95;;;2.65;;
57433;SDS011;43277;52.672;6.984;2022-10-16T16:47:01;14.02;;;2.30;;
57433;SDS011;43277;52.672;6.984;2022-10-16T16:49:27;13.88;;;2.22;;
57433;SDS011;43277;52.672;6.984;2022-10-16T16:51:53;12.48;;;2.20;;
57433;SDS011;43277;52.672;6.984;2022-10-16T16:54:19;13.38;;;2.30;;
57433;SDS011;43277;52.672;6.984;2022-10-16T16:56:44;15.60;;;2.60;;
57433;SDS011;43277;52.672;6.984;2022-10-16T16:59:14;13.63;;;2.70;;
57433;SDS011;43277;52.672;6.984;2022-10-16T17:01:42;12.25;;;2.60;;
57433;SDS011;43277;52.672;6.984;2022-10-16T17:04:08;13.80;;;2.70;;
57433;SDS011;43277;52.672;6.984;2022-10-16T17:06:35;11.93;;;2.47;;